Terminal Aerodrome Forecast
Issued by NWS Blacksburg, VA

Home | Current Version | Previous Version | Text Only | Print | Product List | Glossary On
Versions: 1 2 3 4 5 6 7 8 9 10 11 12 13 14 15 16 17 18 19 20 21 22 23 24 25 26 27 28 29 30 31 32 33 34 35
000
FTUS41 KRNK 022327
TAFLYH
TAF
KLYH 022327Z 0300/0324 VRB03KT P6SM BKN250
     FM030900 06003KT P6SM OVC025
     FM031600 15006KT 5SM -FZRA BR OVC025
     FM032000 17006KT 5SM -RA BR OVC012 WS020/22042KT=

USA.gov is the U.S. government's official web portal to all federal, state and local government web resources and services.